sensor_id;sensor_type;location;lat;lon;timestamp;P1;durP1;ratioP1;P2;durP2;ratioP2
52724;SDS011;38621;52.830;6.914;2024-03-08T00:00:17;82.70;;;78.60;;
52724;SDS011;38621;52.830;6.914;2024-03-08T00:02:45;85.15;;;80.85;;
52724;SDS011;38621;52.830;6.914;2024-03-08T00:05:12;90.60;;;86.15;;
52724;SDS011;38621;52.830;6.914;2024-03-08T00:07:39;89.60;;;85.50;;
52724;SDS011;38621;52.830;6.914;2024-03-08T00:10:07;93.97;;;89.95;;
52724;SDS011;38621;52.830;6.914;2024-03-08T00:12:39;85.65;;;81.35;;
52724;SDS011;38621;52.830;6.914;2024-03-08T00:15:12;93.00;;;88.85;;
52724;SDS011;38621;52.830;6.914;2024-03-08T00:17:41;98.65;;;94.13;;
52724;SDS011;38621;52.830;6.914;2024-03-08T00:20:08;87.00;;;82.85;;
52724;SDS011;38621;52.830;6.914;2024-03-08T00:22:34;89.50;;;85.25;;
52724;SDS011;38621;52.830;6.914;2024-03-08T00:25:01;98.13;;;93.57;;
52724;SDS011;38621;52.830;6.914;2024-03-08T00:27:27;95.15;;;90.32;;
52724;SDS011;38621;52.830;6.914;2024-03-08T00:29:59;101.57;;;97.05;;
52724;SDS011;38621;52.830;6.914;2024-03-08T00:32:25;94.63;;;90.03;;
52724;SDS011;38621;52.830;6.914;2024-03-08T00:34:53;91.32;;;87.07;;
52724;SDS011;38621;52.830;6.914;2024-03-08T00:37:22;83.30;;;79.22;;
52724;SDS011;38621;52.830;6.914;2024-03-08T00:39:48;93.70;;;89.20;;
52724;SDS011;38621;52.830;6.914;2024-03-08T00:42:15;83.75;;;79.68;;
52724;SDS011;38621;52.830;6.914;2024-03-08T00:44:41;83.18;;;78.88;;
52724;SDS011;38621;52.830;6.914;2024-03-08T00:47:07;87.03;;;82.82;;
52724;SDS011;38621;52.830;6.914;2024-03-08T00:49:33;92.78;;;88.18;;
52724;SDS011;38621;52.830;6.914;2024-03-08T00:51:58;85.28;;;81.00;;
52724;SDS011;38621;52.830;6.914;2024-03-08T00:54:24;82.65;;;78.45;;
52724;SDS011;38621;52.830;6.914;2024-03-08T00:56:51;89.72;;;85.25;;
52724;SDS011;38621;52.830;6.914;2024-03-08T00:59:16;88.25;;;84.25;;
52724;SDS011;38621;52.830;6.914;2024-03-08T01:01:42;93.00;;;88.55;;
52724;SDS011;38621;52.830;6.914;2024-03-08T01:04:09;93.80;;;89.28;;
52724;SDS011;38621;52.830;6.914;2024-03-08T01:06:35;88.20;;;83.78;;
52724;SDS011;38621;52.830;6.914;2024-03-08T01:09:01;91.25;;;86.85;;
52724;SDS011;38621;52.830;6.914;2024-03-08T01:11:27;85.60;;;81.40;;
52724;SDS011;38621;52.830;6.914;2024-03-08T01:13:53;88.05;;;83.72;;
52724;SDS011;38621;52.830;6.914;2024-03-08T01:16:19;80.20;;;76.35;;
52724;SDS011;38621;52.830;6.914;2024-03-08T01:18:46;85.13;;;80.70;;
52724;SDS011;38621;52.830;6.914;2024-03-08T01:21:12;80.70;;;76.68;;
52724;SDS011;38621;52.830;6.914;2024-03-08T01:23:38;84.55;;;80.28;;
52724;SDS011;38621;52.830;6.914;2024-03-08T01:26:04;80.72;;;76.55;;
52724;SDS011;38621;52.830;6.914;2024-03-08T01:28:30;80.57;;;76.80;;
52724;SDS011;38621;52.830;6.914;2024-03-08T01:30:56;86.78;;;82.72;;
52724;SDS011;38621;52.830;6.914;2024-03-08T01:33:23;80.93;;;76.95;;
52724;SDS011;38621;52.830;6.914;2024-03-08T01:35:53;89.00;;;84.60;;
52724;SDS011;38621;52.830;6.914;2024-03-08T01:38:19;82.65;;;78.32;;
52724;SDS011;38621;52.830;6.914;2024-03-08T01:40:50;81.05;;;77.13;;
52724;SDS011;38621;52.830;6.914;2024-03-08T01:45:46;83.50;;;79.60;;
52724;SDS011;38621;52.830;6.914;2024-03-08T01:48:13;84.40;;;80.03;;
52724;SDS011;38621;52.830;6.914;2024-03-08T01:50:42;81.50;;;77.50;;
52724;SDS011;38621;52.830;6.914;2024-03-08T01:53:09;85.88;;;81.55;;
52724;SDS011;38621;52.830;6.914;2024-03-08T01:55:37;82.10;;;77.45;;
52724;SDS011;38621;52.830;6.914;2024-03-08T01:58:07;82.80;;;78.25;;
52724;SDS011;38621;52.830;6.914;2024-03-08T02:00:35;76.78;;;72.82;;
52724;SDS011;38621;52.830;6.914;2024-03-08T02:03:03;77.05;;;73.10;;
52724;SDS011;38621;52.830;6.914;2024-03-08T02:05:29;85.45;;;81.25;;
52724;SDS011;38621;52.830;6.914;2024-03-08T02:07:55;79.32;;;75.22;;
52724;SDS011;38621;52.830;6.914;2024-03-08T02:10:22;81.03;;;77.00;;
52724;SDS011;38621;52.830;6.914;2024-03-08T02:12:47;80.93;;;76.75;;
52724;SDS011;38621;52.830;6.914;2024-03-08T02:15:14;75.22;;;71.28;;
52724;SDS011;38621;52.830;6.914;2024-03-08T02:17:40;81.05;;;76.60;;
52724;SDS011;38621;52.830;6.914;2024-03-08T02:20:06;80.90;;;77.05;;
52724;SDS011;38621;52.830;6.914;2024-03-08T02:22:34;82.55;;;78.10;;
52724;SDS011;38621;52.830;6.914;2024-03-08T02:25:01;80.82;;;76.85;;
52724;SDS011;38621;52.830;6.914;2024-03-08T02:27:28;74.47;;;70.78;;
52724;SDS011;38621;52.830;6.914;2024-03-08T02:29:55;80.22;;;75.95;;
52724;SDS011;38621;52.830;6.914;2024-03-08T02:32:22;82.78;;;78.38;;
52724;SDS011;38621;52.830;6.914;2024-03-08T02:34:48;81.50;;;77.35;;
52724;SDS011;38621;52.830;6.914;2024-03-08T02:37:14;76.60;;;72.70;;
52724;SDS011;38621;52.830;6.914;2024-03-08T02:39:43;75.32;;;71.35;;
52724;SDS011;38621;52.830;6.914;2024-03-08T02:42:09;83.80;;;79.50;;
52724;SDS011;38621;52.830;6.914;2024-03-08T02:44:35;77.78;;;73.45;;
52724;SDS011;38621;52.830;6.914;2024-03-08T02:47:00;78.78;;;74.90;;
52724;SDS011;38621;52.830;6.914;2024-03-08T02:49:26;76.00;;;72.03;;
52724;SDS011;38621;52.830;6.914;2024-03-08T02:51:52;81.05;;;77.05;;
52724;SDS011;38621;52.830;6.914;2024-03-08T02:54:19;76.75;;;72.88;;
52724;SDS011;38621;52.830;6.914;2024-03-08T02:56:45;78.22;;;73.90;;
52724;SDS011;38621;52.830;6.914;2024-03-08T02:59:11;79.47;;;75.30;;
52724;SDS011;38621;52.830;6.914;2024-03-08T03:01:38;75.97;;;72.07;;
52724;SDS011;38621;52.830;6.914;2024-03-08T03:04:04;74.20;;;70.07;;
52724;SDS011;38621;52.830;6.914;2024-03-08T03:06:30;72.68;;;69.05;;
52724;SDS011;38621;52.830;6.914;2024-03-08T03:08:57;77.13;;;73.13;;
52724;SDS011;38621;52.830;6.914;2024-03-08T03:11:23;76.50;;;72.38;;
52724;SDS011;38621;52.830;6.914;2024-03-08T03:13:49;76.15;;;72.13;;
52724;SDS011;38621;52.830;6.914;2024-03-08T03:16:18;75.25;;;70.82;;
52724;SDS011;38621;52.830;6.914;2024-03-08T03:18:45;73.55;;;69.57;;
52724;SDS011;38621;52.830;6.914;2024-03-08T03:21:11;77.63;;;73.55;;
52724;SDS011;38621;52.830;6.914;2024-03-08T03:23:38;74.32;;;70.35;;
52724;SDS011;38621;52.830;6.914;2024-03-08T03:26:09;69.63;;;65.88;;
52724;SDS011;38621;52.830;6.914;2024-03-08T03:28:38;71.60;;;67.72;;
52724;SDS011;38621;52.830;6.914;2024-03-08T03:31:07;75.97;;;72.03;;
52724;SDS011;38621;52.830;6.914;2024-03-08T03:33:35;79.30;;;75.35;;
52724;SDS011;38621;52.830;6.914;2024-03-08T03:36:02;75.13;;;71.20;;
52724;SDS011;38621;52.830;6.914;2024-03-08T03:38:30;72.55;;;68.75;;
52724;SDS011;38621;52.830;6.914;2024-03-08T03:40:55;81.38;;;77.00;;
52724;SDS011;38621;52.830;6.914;2024-03-08T03:43:25;73.97;;;70.35;;
52724;SDS011;38621;52.830;6.914;2024-03-08T03:45:51;73.82;;;69.95;;
52724;SDS011;38621;52.830;6.914;2024-03-08T03:48:17;73.72;;;69.68;;
52724;SDS011;38621;52.830;6.914;2024-03-08T03:50:42;75.25;;;71.32;;
52724;SDS011;38621;52.830;6.914;2024-03-08T03:53:09;73.60;;;69.63;;
52724;SDS011;38621;52.830;6.914;2024-03-08T03:55:35;75.50;;;71.35;;
52724;SDS011;38621;52.830;6.914;2024-03-08T03:58:02;70.85;;;67.00;;
52724;SDS011;38621;52.830;6.914;2024-03-08T04:00:28;72.28;;;68.05;;
52724;SDS011;38621;52.830;6.914;2024-03-08T04:02:53;72.70;;;68.80;;
52724;SDS011;38621;52.830;6.914;2024-03-08T04:05:19;77.97;;;73.85;;
52724;SDS011;38621;52.830;6.914;2024-03-08T04:07:46;79.18;;;75.13;;
52724;SDS011;38621;52.830;6.914;2024-03-08T04:10:11;80.70;;;76.20;;
52724;SDS011;38621;52.830;6.914;2024-03-08T04:12:37;71.70;;;67.70;;
52724;SDS011;38621;52.830;6.914;2024-03-08T04:15:04;72.43;;;68.18;;
52724;SDS011;38621;52.830;6.914;2024-03-08T04:17:32;69.70;;;65.97;;
52724;SDS011;38621;52.830;6.914;2024-03-08T04:20:02;72.32;;;68.43;;
52724;SDS011;38621;52.830;6.914;2024-03-08T04:22:34;69.63;;;65.85;;
52724;SDS011;38621;52.830;6.914;2024-03-08T04:25:03;75.70;;;71.60;;
52724;SDS011;38621;52.830;6.914;2024-03-08T04:27:29;73.30;;;69.38;;
52724;SDS011;38621;52.830;6.914;2024-03-08T04:29:55;72.60;;;68.60;;
52724;SDS011;38621;52.830;6.914;2024-03-08T04:32:22;68.35;;;64.88;;
52724;SDS011;38621;52.830;6.914;2024-03-08T04:34:47;68.90;;;65.10;;
52724;SDS011;38621;52.830;6.914;2024-03-08T04:37:14;69.22;;;65.32;;
52724;SDS011;38621;52.830;6.914;2024-03-08T04:39:41;72.60;;;68.55;;
52724;SDS011;38621;52.830;6.914;2024-03-08T04:42:07;69.63;;;65.55;;
52724;SDS011;38621;52.830;6.914;2024-03-08T04:44:35;70.28;;;66.40;;
52724;SDS011;38621;52.830;6.914;2024-03-08T04:47:03;73.28;;;69.25;;
52724;SDS011;38621;52.830;6.914;2024-03-08T04:49:31;66.78;;;63.13;;
52724;SDS011;38621;52.830;6.914;2024-03-08T04:52:00;65.88;;;62.20;;
52724;SDS011;38621;52.830;6.914;2024-03-08T04:54:30;69.38;;;65.47;;
52724;SDS011;38621;52.830;6.914;2024-03-08T04:56:56;69.72;;;65.53;;
52724;SDS011;38621;52.830;6.914;2024-03-08T04:59:22;63.45;;;60.13;;
52724;SDS011;38621;52.830;6.914;2024-03-08T05:01:49;65.95;;;62.20;;
52724;SDS011;38621;52.830;6.914;2024-03-08T05:04:14;76.70;;;72.90;;
52724;SDS011;38621;52.830;6.914;2024-03-08T05:06:40;70.40;;;66.35;;
52724;SDS011;38621;52.830;6.914;2024-03-08T05:09:06;67.88;;;64.25;;
52724;SDS011;38621;52.830;6.914;2024-03-08T05:11:39;66.72;;;62.90;;
52724;SDS011;38621;52.830;6.914;2024-03-08T05:14:05;67.55;;;63.80;;
52724;SDS011;38621;52.830;6.914;2024-03-08T05:16:31;68.57;;;64.68;;
52724;SDS011;38621;52.830;6.914;2024-03-08T05:18:57;68.85;;;64.65;;
52724;SDS011;38621;52.830;6.914;2024-03-08T05:21:22;69.25;;;65.43;;
52724;SDS011;38621;52.830;6.914;2024-03-08T05:23:48;71.53;;;67.72;;
52724;SDS011;38621;52.830;6.914;2024-03-08T05:26:15;66.25;;;62.42;;
52724;SDS011;38621;52.830;6.914;2024-03-08T05:28:41;64.60;;;60.65;;
52724;SDS011;38621;52.830;6.914;2024-03-08T05:31:07;65.07;;;61.40;;
52724;SDS011;38621;52.830;6.914;2024-03-08T05:33:33;66.43;;;62.65;;
52724;SDS011;38621;52.830;6.914;2024-03-08T05:36:02;66.50;;;62.53;;
52724;SDS011;38621;52.830;6.914;2024-03-08T05:38:28;71.63;;;67.72;;
52724;SDS011;38621;52.830;6.914;2024-03-08T05:40:54;61.83;;;58.25;;
52724;SDS011;38621;52.830;6.914;2024-03-08T05:43:20;64.57;;;60.92;;
52724;SDS011;38621;52.830;6.914;2024-03-08T05:45:46;66.47;;;62.63;;
52724;SDS011;38621;52.830;6.914;2024-03-08T05:48:13;66.00;;;62.13;;
52724;SDS011;38621;52.830;6.914;2024-03-08T05:50:39;69.78;;;66.28;;
52724;SDS011;38621;52.830;6.914;2024-03-08T05:53:04;63.53;;;59.88;;
52724;SDS011;38621;52.830;6.914;2024-03-08T05:55:33;63.67;;;59.97;;
52724;SDS011;38621;52.830;6.914;2024-03-08T05:58:01;61.72;;;57.70;;
52724;SDS011;38621;52.830;6.914;2024-03-08T06:00:27;62.17;;;58.25;;
52724;SDS011;38621;52.830;6.914;2024-03-08T06:02:53;63.72;;;59.90;;
52724;SDS011;38621;52.830;6.914;2024-03-08T06:05:19;60.50;;;56.83;;
52724;SDS011;38621;52.830;6.914;2024-03-08T06:07:44;61.65;;;58.03;;
52724;SDS011;38621;52.830;6.914;2024-03-08T06:10:10;63.95;;;59.95;;
52724;SDS011;38621;52.830;6.914;2024-03-08T06:12:39;63.78;;;59.97;;
52724;SDS011;38621;52.830;6.914;2024-03-08T06:15:09;66.38;;;62.45;;
52724;SDS011;38621;52.830;6.914;2024-03-08T06:17:35;59.67;;;56.20;;
52724;SDS011;38621;52.830;6.914;2024-03-08T06:20:02;65.70;;;61.47;;
52724;SDS011;38621;52.830;6.914;2024-03-08T06:22:29;87.55;;;81.63;;
52724;SDS011;38621;52.830;6.914;2024-03-08T06:24:55;62.30;;;58.70;;
52724;SDS011;38621;52.830;6.914;2024-03-08T06:27:21;62.10;;;58.28;;
52724;SDS011;38621;52.830;6.914;2024-03-08T06:29:47;69.82;;;65.97;;
52724;SDS011;38621;52.830;6.914;2024-03-08T06:32:14;63.08;;;59.03;;
52724;SDS011;38621;52.830;6.914;2024-03-08T06:34:40;66.57;;;62.72;;
52724;SDS011;38621;52.830;6.914;2024-03-08T06:37:06;62.47;;;58.50;;
52724;SDS011;38621;52.830;6.914;2024-03-08T06:39:32;63.03;;;59.38;;
52724;SDS011;38621;52.830;6.914;2024-03-08T06:41:59;64.15;;;60.60;;
52724;SDS011;38621;52.830;6.914;2024-03-08T06:44:25;69.80;;;65.93;;
52724;SDS011;38621;52.830;6.914;2024-03-08T06:46:51;68.35;;;64.40;;
52724;SDS011;38621;52.830;6.914;2024-03-08T06:49:16;75.00;;;70.57;;
52724;SDS011;38621;52.830;6.914;2024-03-08T06:51:42;67.03;;;63.13;;
52724;SDS011;38621;52.830;6.914;2024-03-08T06:54:08;69.78;;;65.88;;
52724;SDS011;38621;52.830;6.914;2024-03-08T06:56:37;65.18;;;61.38;;
52724;SDS011;38621;52.830;6.914;2024-03-08T06:59:03;61.97;;;58.65;;
52724;SDS011;38621;52.830;6.914;2024-03-08T07:01:29;70.18;;;66.50;;
52724;SDS011;38621;52.830;6.914;2024-03-08T07:03:59;80.40;;;75.80;;
52724;SDS011;38621;52.830;6.914;2024-03-08T07:06:30;69.70;;;65.82;;
52724;SDS011;38621;52.830;6.914;2024-03-08T07:08:58;71.80;;;68.03;;
52724;SDS011;38621;52.830;6.914;2024-03-08T07:11:24;77.63;;;73.43;;
52724;SDS011;38621;52.830;6.914;2024-03-08T07:13:50;69.45;;;65.45;;
52724;SDS011;38621;52.830;6.914;2024-03-08T07:16:15;72.30;;;68.40;;
52724;SDS011;38621;52.830;6.914;2024-03-08T07:18:41;75.63;;;71.32;;
52724;SDS011;38621;52.830;6.914;2024-03-08T07:21:09;74.97;;;70.90;;
52724;SDS011;38621;52.830;6.914;2024-03-08T07:23:38;70.85;;;66.93;;
52724;SDS011;38621;52.830;6.914;2024-03-08T07:26:27;69.95;;;65.88;;
52724;SDS011;38621;52.830;6.914;2024-03-08T07:28:53;70.03;;;66.20;;
52724;SDS011;38621;52.830;6.914;2024-03-08T07:31:23;76.88;;;72.57;;
52724;SDS011;38621;52.830;6.914;2024-03-08T07:34:00;73.22;;;69.05;;
52724;SDS011;38621;52.830;6.914;2024-03-08T07:36:25;73.13;;;69.15;;
52724;SDS011;38621;52.830;6.914;2024-03-08T07:38:51;64.72;;;60.97;;
52724;SDS011;38621;52.830;6.914;2024-03-08T07:41:17;69.47;;;65.85;;
52724;SDS011;38621;52.830;6.914;2024-03-08T07:43:42;73.85;;;69.82;;
52724;SDS011;38621;52.830;6.914;2024-03-08T07:46:11;70.65;;;66.88;;
52724;SDS011;38621;52.830;6.914;2024-03-08T07:48:38;70.30;;;66.20;;
52724;SDS011;38621;52.830;6.914;2024-03-08T07:51:05;64.88;;;60.78;;
52724;SDS011;38621;52.830;6.914;2024-03-08T07:53:30;64.10;;;60.38;;
52724;SDS011;38621;52.830;6.914;2024-03-08T07:55:56;59.80;;;56.15;;
52724;SDS011;38621;52.830;6.914;2024-03-08T07:58:22;74.82;;;70.65;;
52724;SDS011;38621;52.830;6.914;2024-03-08T08:00:48;61.53;;;58.22;;
52724;SDS011;38621;52.830;6.914;2024-03-08T08:03:14;73.03;;;69.28;;
52724;SDS011;38621;52.830;6.914;2024-03-08T08:05:41;72.57;;;68.82;;
52724;SDS011;38621;52.830;6.914;2024-03-08T08:08:07;69.72;;;66.03;;
52724;SDS011;38621;52.830;6.914;2024-03-08T08:10:35;68.45;;;64.68;;
52724;SDS011;38621;52.830;6.914;2024-03-08T08:13:02;54.28;;;50.50;;
52724;SDS011;38621;52.830;6.914;2024-03-08T08:15:29;55.35;;;51.53;;
52724;SDS011;38621;52.830;6.914;2024-03-08T08:17:55;59.25;;;55.65;;
52724;SDS011;38621;52.830;6.914;2024-03-08T08:20:21;68.18;;;64.28;;
52724;SDS011;38621;52.830;6.914;2024-03-08T08:22:48;62.08;;;58.17;;
52724;SDS011;38621;52.830;6.914;2024-03-08T08:25:14;48.33;;;45.13;;
52724;SDS011;38621;52.830;6.914;2024-03-08T08:27:40;47.28;;;44.28;;
52724;SDS011;38621;52.830;6.914;2024-03-08T08:30:09;39.90;;;36.80;;
52724;SDS011;38621;52.830;6.914;2024-03-08T08:32:36;58.72;;;55.33;;
52724;SDS011;38621;52.830;6.914;2024-03-08T08:35:05;48.60;;;44.90;;
52724;SDS011;38621;52.830;6.914;2024-03-08T08:37:32;51.85;;;48.80;;
52724;SDS011;38621;52.830;6.914;2024-03-08T08:40:01;56.22;;;52.55;;
52724;SDS011;38621;52.830;6.914;2024-03-08T08:42:30;52.78;;;49.70;;
52724;SDS011;38621;52.830;6.914;2024-03-08T08:44:57;31.80;;;29.08;;
52724;SDS011;38621;52.830;6.914;2024-03-08T08:47:23;35.17;;;32.50;;
52724;SDS011;38621;52.830;6.914;2024-03-08T08:49:49;36.70;;;34.08;;
52724;SDS011;38621;52.830;6.914;2024-03-08T08:52:16;30.90;;;28.23;;
52724;SDS011;38621;52.830;6.914;2024-03-08T08:54:42;29.45;;;26.90;;
52724;SDS011;38621;52.830;6.914;2024-03-08T08:57:09;30.45;;;28.13;;
52724;SDS011;38621;52.830;6.914;2024-03-08T08:59:35;32.50;;;30.17;;
52724;SDS011;38621;52.830;6.914;2024-03-08T09:02:02;24.60;;;22.20;;
52724;SDS011;38621;52.830;6.914;2024-03-08T09:04:29;26.80;;;24.45;;
52724;SDS011;38621;52.830;6.914;2024-03-08T09:06:56;26.77;;;24.52;;
52724;SDS011;38621;52.830;6.914;2024-03-08T09:09:22;23.33;;;20.88;;
52724;SDS011;38621;52.830;6.914;2024-03-08T09:11:48;21.95;;;19.77;;
52724;SDS011;38621;52.830;6.914;2024-03-08T09:14:14;27.08;;;24.48;;
52724;SDS011;38621;52.830;6.914;2024-03-08T09:16:40;33.60;;;30.95;;
52724;SDS011;38621;52.830;6.914;2024-03-08T09:19:06;24.02;;;21.63;;
52724;SDS011;38621;52.830;6.914;2024-03-08T09:21:34;27.90;;;25.33;;
52724;SDS011;38621;52.830;6.914;2024-03-08T09:24:00;31.95;;;29.30;;
52724;SDS011;38621;52.830;6.914;2024-03-08T09:26:26;26.85;;;24.10;;
52724;SDS011;38621;52.830;6.914;2024-03-08T09:28:52;29.50;;;26.92;;
52724;SDS011;38621;52.830;6.914;2024-03-08T09:31:20;33.60;;;30.45;;
52724;SDS011;38621;52.830;6.914;2024-03-08T09:33:46;34.13;;;31.30;;
52724;SDS011;38621;52.830;6.914;2024-03-08T09:36:12;29.35;;;26.77;;
52724;SDS011;38621;52.830;6.914;2024-03-08T09:38:39;25.00;;;22.83;;
52724;SDS011;38621;52.830;6.914;2024-03-08T09:41:05;29.75;;;27.25;;
52724;SDS011;38621;52.830;6.914;2024-03-08T09:43:31;28.88;;;26.33;;
52724;SDS011;38621;52.830;6.914;2024-03-08T09:45:57;30.13;;;27.33;;
52724;SDS011;38621;52.830;6.914;2024-03-08T09:48:23;28.70;;;26.30;;
52724;SDS011;38621;52.830;6.914;2024-03-08T09:50:51;27.85;;;25.48;;
52724;SDS011;38621;52.830;6.914;2024-03-08T09:53:17;32.40;;;29.90;;
52724;SDS011;38621;52.830;6.914;2024-03-08T09:55:43;35.28;;;32.45;;
52724;SDS011;38621;52.830;6.914;2024-03-08T09:58:13;33.70;;;30.98;;
52724;SDS011;38621;52.830;6.914;2024-03-08T10:00:46;33.67;;;31.17;;
52724;SDS011;38621;52.830;6.914;2024-03-08T10:03:12;33.05;;;30.65;;
52724;SDS011;38621;52.830;6.914;2024-03-08T10:05:40;40.63;;;37.65;;
52724;SDS011;38621;52.830;6.914;2024-03-08T10:08:06;35.05;;;32.35;;
52724;SDS011;38621;52.830;6.914;2024-03-08T10:10:35;38.47;;;35.97;;
52724;SDS011;38621;52.830;6.914;2024-03-08T10:13:07;36.72;;;34.13;;
52724;SDS011;38621;52.830;6.914;2024-03-08T10:15:34;30.70;;;28.30;;
52724;SDS011;38621;52.830;6.914;2024-03-08T10:18:01;37.22;;;34.42;;
52724;SDS011;38621;52.830;6.914;2024-03-08T10:20:28;41.25;;;38.50;;
52724;SDS011;38621;52.830;6.914;2024-03-08T10:23:01;35.97;;;32.92;;
52724;SDS011;38621;52.830;6.914;2024-03-08T10:25:34;28.92;;;26.65;;
52724;SDS011;38621;52.830;6.914;2024-03-08T10:28:02;55.55;;;52.22;;
52724;SDS011;38621;52.830;6.914;2024-03-08T10:30:29;41.58;;;38.90;;
52724;SDS011;38621;52.830;6.914;2024-03-08T10:32:55;76.07;;;72.15;;
52724;SDS011;38621;52.830;6.914;2024-03-08T10:35:21;34.92;;;32.22;;
52724;SDS011;38621;52.830;6.914;2024-03-08T10:37:49;35.53;;;32.97;;
52724;SDS011;38621;52.830;6.914;2024-03-08T10:40:25;33.67;;;31.20;;
52724;SDS011;38621;52.830;6.914;2024-03-08T10:42:55;32.80;;;30.27;;
52724;SDS011;38621;52.830;6.914;2024-03-08T10:45:36;37.50;;;34.85;;
52724;SDS011;38621;52.830;6.914;2024-03-08T10:51:03;29.98;;;27.58;;
52724;SDS011;38621;52.830;6.914;2024-03-08T10:53:30;44.22;;;41.50;;
52724;SDS011;38621;52.830;6.914;2024-03-08T10:55:56;49.88;;;46.97;;
52724;SDS011;38621;52.830;6.914;2024-03-08T10:58:24;25.23;;;23.23;;
52724;SDS011;38621;52.830;6.914;2024-03-08T11:00:55;43.13;;;40.30;;
52724;SDS011;38621;52.830;6.914;2024-03-08T11:06:06;40.38;;;37.83;;
52724;SDS011;38621;52.830;6.914;2024-03-08T11:08:35;46.15;;;43.17;;
52724;SDS011;38621;52.830;6.914;2024-03-08T11:11:01;28.55;;;26.02;;
52724;SDS011;38621;52.830;6.914;2024-03-08T11:16:09;33.55;;;31.05;;
52724;SDS011;38621;52.830;6.914;2024-03-08T11:18:36;22.05;;;19.95;;
52724;SDS011;38621;52.830;6.914;2024-03-08T11:21:03;29.67;;;27.45;;
52724;SDS011;38621;52.830;6.914;2024-03-08T11:23:37;29.58;;;27.40;;
52724;SDS011;38621;52.830;6.914;2024-03-08T11:26:18;20.05;;;18.15;;
52724;SDS011;38621;52.830;6.914;2024-03-08T11:28:45;28.60;;;25.83;;
52724;SDS011;38621;52.830;6.914;2024-03-08T11:33:39;23.33;;;21.27;;
52724;SDS011;38621;52.830;6.914;2024-03-08T11:36:21;23.35;;;21.15;;
52724;SDS011;38621;52.830;6.914;2024-03-08T11:38:49;28.30;;;26.05;;
52724;SDS011;38621;52.830;6.914;2024-03-08T11:41:21;25.15;;;22.98;;
52724;SDS011;38621;52.830;6.914;2024-03-08T11:43:48;26.42;;;24.20;;
52724;SDS011;38621;52.830;6.914;2024-03-08T11:46:26;21.65;;;19.60;;
52724;SDS011;38621;52.830;6.914;2024-03-08T11:48:54;21.20;;;19.10;;
52724;SDS011;38621;52.830;6.914;2024-03-08T11:51:21;55.78;;;52.47;;
52724;SDS011;38621;52.830;6.914;2024-03-08T11:53:48;18.83;;;16.83;;
52724;SDS011;38621;52.830;6.914;2024-03-08T11:56:15;22.70;;;20.58;;
52724;SDS011;38621;52.830;6.914;2024-03-08T11:58:41;38.08;;;35.33;;
52724;SDS011;38621;52.830;6.914;2024-03-08T12:01:08;43.78;;;41.03;;
52724;SDS011;38621;52.830;6.914;2024-03-08T12:03:39;22.88;;;20.70;;
52724;SDS011;38621;52.830;6.914;2024-03-08T12:06:07;27.65;;;25.50;;
52724;SDS011;38621;52.830;6.914;2024-03-08T12:08:36;29.90;;;27.52;;
52724;SDS011;38621;52.830;6.914;2024-03-08T12:11:04;23.42;;;21.38;;
52724;SDS011;38621;52.830;6.914;2024-03-08T12:13:30;25.50;;;22.95;;
52724;SDS011;38621;52.830;6.914;2024-03-08T12:16:03;24.88;;;22.45;;
52724;SDS011;38621;52.830;6.914;2024-03-08T12:18:33;28.15;;;25.75;;
52724;SDS011;38621;52.830;6.914;2024-03-08T12:21:10;25.42;;;23.30;;
52724;SDS011;38621;52.830;6.914;2024-03-08T12:23:38;27.35;;;25.00;;
52724;SDS011;38621;52.830;6.914;2024-03-08T12:28:42;22.27;;;20.25;;
52724;SDS011;38621;52.830;6.914;2024-03-08T12:31:13;21.92;;;19.73;;
52724;SDS011;38621;52.830;6.914;2024-03-08T12:36:14;22.25;;;19.83;;
52724;SDS011;38621;52.830;6.914;2024-03-08T12:38:43;22.42;;;20.55;;
52724;SDS011;38621;52.830;6.914;2024-03-08T12:41:13;26.50;;;24.10;;
52724;SDS011;38621;52.830;6.914;2024-03-08T12:43:39;23.25;;;21.30;;
52724;SDS011;38621;52.830;6.914;2024-03-08T12:46:05;21.73;;;19.48;;
52724;SDS011;38621;52.830;6.914;2024-03-08T12:48:34;23.02;;;20.92;;
52724;SDS011;38621;52.830;6.914;2024-03-08T12:51:07;21.97;;;20.07;;
52724;SDS011;38621;52.830;6.914;2024-03-08T12:53:34;20.17;;;18.17;;
52724;SDS011;38621;52.830;6.914;2024-03-08T12:56:00;28.58;;;26.58;;
52724;SDS011;38621;52.830;6.914;2024-03-08T12:58:25;28.23;;;26.23;;
52724;SDS011;38621;52.830;6.914;2024-03-08T13:00:51;27.23;;;25.30;;
52724;SDS011;38621;52.830;6.914;2024-03-08T13:03:17;22.35;;;20.17;;
52724;SDS011;38621;52.830;6.914;2024-03-08T13:05:43;23.58;;;21.65;;
52724;SDS011;38621;52.830;6.914;2024-03-08T13:08:09;20.48;;;18.80;;
52724;SDS011;38621;52.830;6.914;2024-03-08T13:10:38;21.63;;;19.52;;
52724;SDS011;38621;52.830;6.914;2024-03-08T13:13:04;20.10;;;18.30;;
52724;SDS011;38621;52.830;6.914;2024-03-08T13:15:30;22.52;;;20.27;;
52724;SDS011;38621;52.830;6.914;2024-03-08T13:17:56;24.92;;;22.88;;
52724;SDS011;38621;52.830;6.914;2024-03-08T13:20:28;20.60;;;18.73;;
52724;SDS011;38621;52.830;6.914;2024-03-08T13:22:54;19.00;;;17.38;;
52724;SDS011;38621;52.830;6.914;2024-03-08T13:25:21;19.92;;;18.02;;
52724;SDS011;38621;52.830;6.914;2024-03-08T13:27:48;19.83;;;17.98;;
52724;SDS011;38621;52.830;6.914;2024-03-08T13:30:14;18.65;;;16.83;;
52724;SDS011;38621;52.830;6.914;2024-03-08T13:32:43;20.40;;;18.48;;
52724;SDS011;38621;52.830;6.914;2024-03-08T13:35:12;17.42;;;15.68;;
52724;SDS011;38621;52.830;6.914;2024-03-08T13:37:41;19.05;;;17.35;;
52724;SDS011;38621;52.830;6.914;2024-03-08T13:40:08;18.42;;;16.73;;
52724;SDS011;38621;52.830;6.914;2024-03-08T13:42:42;17.85;;;16.10;;
52724;SDS011;38621;52.830;6.914;2024-03-08T13:45:08;20.45;;;18.73;;
52724;SDS011;38621;52.830;6.914;2024-03-08T13:47:37;20.83;;;19.00;;
52724;SDS011;38621;52.830;6.914;2024-03-08T13:50:06;17.40;;;15.68;;
52724;SDS011;38621;52.830;6.914;2024-03-08T13:52:37;18.88;;;17.10;;
52724;SDS011;38621;52.830;6.914;2024-03-08T13:55:06;30.20;;;28.17;;
52724;SDS011;38621;52.830;6.914;2024-03-08T13:57:32;18.05;;;16.50;;
52724;SDS011;38621;52.830;6.914;2024-03-08T13:59:59;22.50;;;20.42;;
52724;SDS011;38621;52.830;6.914;2024-03-08T14:02:24;35.97;;;33.60;;
52724;SDS011;38621;52.830;6.914;2024-03-08T14:04:54;19.58;;;17.83;;
52724;SDS011;38621;52.830;6.914;2024-03-08T14:07:23;22.00;;;20.15;;
52724;SDS011;38621;52.830;6.914;2024-03-08T14:09:49;29.60;;;27.50;;
52724;SDS011;38621;52.830;6.914;2024-03-08T14:12:18;18.52;;;16.70;;
52724;SDS011;38621;52.830;6.914;2024-03-08T14:14:44;20.55;;;18.63;;
52724;SDS011;38621;52.830;6.914;2024-03-08T14:17:10;19.70;;;17.55;;
52724;SDS011;38621;52.830;6.914;2024-03-08T14:19:39;21.88;;;19.63;;
52724;SDS011;38621;52.830;6.914;2024-03-08T14:22:04;26.23;;;24.05;;
52724;SDS011;38621;52.830;6.914;2024-03-08T14:24:30;27.08;;;24.80;;
52724;SDS011;38621;52.830;6.914;2024-03-08T14:26:59;25.90;;;23.73;;
52724;SDS011;38621;52.830;6.914;2024-03-08T14:29:25;18.90;;;16.95;;
52724;SDS011;38621;52.830;6.914;2024-03-08T14:31:54;19.40;;;17.38;;
52724;SDS011;38621;52.830;6.914;2024-03-08T14:34:27;19.13;;;17.23;;
52724;SDS011;38621;52.830;6.914;2024-03-08T14:36:54;16.88;;;15.27;;
52724;SDS011;38621;52.830;6.914;2024-03-08T14:39:21;22.75;;;20.77;;